createdAt,value
2018-11-21T00:00:01.638Z,-2.90
2018-11-21T00:02:49.845Z,-2.90
2018-11-21T00:05:37.484Z,-2.90
2018-11-21T00:11:12.441Z,-2.70
2018-11-21T00:14:00.060Z,-2.70
2018-11-21T00:16:47.909Z,-2.80
2018-11-21T00:22:23.583Z,-3.00
2018-11-21T00:28:18.603Z,-3.00
2018-11-21T00:31:06.369Z,-3.00
2018-11-21T00:33:54.229Z,-3.00
2018-11-21T00:36:42.558Z,-3.10
2018-11-21T00:42:18.215Z,-3.00
2018-11-21T00:48:13.519Z,-2.90
2018-11-21T00:53:49.218Z,-3.10
2018-11-21T00:59:44.725Z,-3.20
2018-11-21T01:08:19.217Z,-3.00
2018-11-21T01:11:07.124Z,-3.00
2018-11-21T01:13:54.708Z,-2.90
2018-11-21T01:16:42.318Z,-3.00
2018-11-21T01:19:30.205Z,-3.00
2018-11-21T01:22:11.155Z,-3.10
2018-11-21T01:27:49.934Z,-3.20
2018-11-21T01:33:42.876Z,-3.20
2018-11-21T01:36:23.352Z,-3.20
2018-11-21T01:39:04.568Z,-3.20
2018-11-21T01:41:45.643Z,-3.10
2018-11-21T01:44:25.975Z,-3.00
2018-11-21T01:47:06.508Z,-3.10
2018-11-21T01:49:47.005Z,-3.20
2018-11-21T01:52:27.521Z,-3.20
2018-11-21T01:58:07.001Z,-3.20
2018-11-21T02:00:47.312Z,-3.10
2018-11-21T02:03:26.339Z,-4.70
2018-11-21T02:06:13.973Z,-3.10
2018-11-21T02:11:55.806Z,-3.10
2018-11-21T02:14:43.725Z,-3.00
2018-11-21T02:17:31.300Z,-3.10
2018-11-21T02:20:18.937Z,-3.30
2018-11-21T02:23:06.564Z,-3.50
2018-11-21T02:25:54.150Z,-3.60
2018-11-21T02:34:16.580Z,-3.50
2018-11-21T02:37:04.351Z,-3.40
2018-11-21T02:39:52.246Z,-3.40
2018-11-21T02:45:27.307Z,-3.30
2018-11-21T02:51:02.553Z,-3.40
2018-11-21T02:53:50.464Z,-3.60
2018-11-21T02:56:57.467Z,-3.80
2018-11-21T02:59:45.228Z,-3.90
2018-11-21T03:02:33.111Z,-3.80
2018-11-21T03:05:21.049Z,-3.80
2018-11-21T03:08:08.633Z,-3.80
2018-11-21T03:10:56.366Z,-3.90
2018-11-21T03:13:44.330Z,-3.90
2018-11-21T03:16:31.998Z,-4.00
2018-11-21T03:19:19.757Z,-4.00
2018-11-21T03:27:43.399Z,-3.90
2018-11-21T03:30:31.592Z,-3.90
2018-11-21T03:33:19.335Z,-3.60
2018-11-21T03:36:06.999Z,-3.40
2018-11-21T03:38:54.967Z,-3.30
2018-11-21T03:41:42.653Z,-3.30
2018-11-21T03:44:30.683Z,-3.30
2018-11-21T03:47:18.745Z,-3.30
2018-11-21T03:50:07.504Z,-3.40
2018-11-21T03:52:55.518Z,-3.50
2018-11-21T03:55:43.251Z,-3.40
2018-11-21T03:58:31.818Z,-3.40
2018-11-21T04:01:19.489Z,-3.40
2018-11-21T04:04:07.517Z,-3.50
2018-11-21T04:06:55.447Z,-3.40
2018-11-21T04:09:43.099Z,-3.50
2018-11-21T04:12:31.513Z,-3.50
2018-11-21T04:15:19.233Z,-3.50
2018-11-21T04:18:07.124Z,-3.40
2018-11-21T04:20:36.259Z,-3.50
2018-11-21T04:23:05.243Z,-3.30
2018-11-21T04:25:34.730Z,-3.20
2018-11-21T04:28:03.321Z,-3.20
2018-11-21T04:30:31.533Z,-3.20
2018-11-21T04:33:01.285Z,-3.20
2018-11-21T04:35:29.803Z,-3.10
2018-11-21T04:37:58.685Z,-3.20
2018-11-21T04:40:28.009Z,-3.30
2018-11-21T04:42:57.074Z,-3.40
2018-11-21T04:45:26.438Z,-3.50
2018-11-21T04:47:54.634Z,-3.50
2018-11-21T04:50:23.271Z,-3.40
2018-11-21T04:52:52.427Z,-3.40
2018-11-21T04:55:20.589Z,-3.40
2018-11-21T04:57:49.840Z,-3.30
2018-11-21T05:00:17.998Z,-3.30
2018-11-21T05:02:46.821Z,-3.20
2018-11-21T05:05:15.584Z,-3.20
2018-11-21T05:07:45.048Z,-3.30
2018-11-21T05:10:14.250Z,-3.20
2018-11-21T05:12:43.190Z,-3.20
2018-11-21T05:15:11.583Z,-3.20
2018-11-21T05:17:40.626Z,-3.10
2018-11-21T05:20:08.874Z,-3.10
2018-11-21T05:22:37.226Z,-3.00
2018-11-21T05:25:06.443Z,-3.10
2018-11-21T05:27:35.665Z,-3.30
2018-11-21T05:30:04.308Z,-3.40
2018-11-21T05:32:32.494Z,-3.50
2018-11-21T05:35:01.269Z,-3.50
2018-11-21T05:37:29.727Z,-3.50
2018-11-21T05:39:58.486Z,-3.50
2018-11-21T05:42:27.958Z,-3.50
2018-11-21T05:44:56.782Z,-3.40
2018-11-21T05:47:25.813Z,-3.30
2018-11-21T05:49:55.869Z,-3.40
2018-11-21T05:52:24.553Z,-3.50
2018-11-21T05:54:52.733Z,-3.50
2018-11-21T05:57:21.616Z,-3.60
2018-11-21T05:59:50.502Z,-3.70
2018-11-21T06:02:19.396Z,-3.90
2018-11-21T06:04:48.419Z,-4.00
2018-11-21T06:07:16.599Z,-4.10
2018-11-21T06:09:45.247Z,-4.10
2018-11-21T06:12:14.164Z,-4.10
2018-11-21T06:14:42.720Z,-4.20
2018-11-21T06:17:11.497Z,-4.10
2018-11-21T06:19:40.614Z,-4.10
2018-11-21T06:22:09.158Z,-4.10
2018-11-21T06:24:38.049Z,-4.00
2018-11-21T06:27:06.675Z,-4.00
2018-11-21T06:29:54.600Z,-4.00
2018-11-21T06:32:23.080Z,-4.00
2018-11-21T06:34:51.524Z,-4.10
2018-11-21T06:37:20.962Z,-4.10
2018-11-21T06:39:50.047Z,-4.00
2018-11-21T06:42:19.460Z,-4.00
2018-11-21T06:44:48.061Z,-3.90
2018-11-21T06:47:16.964Z,-3.80
2018-11-21T06:49:45.233Z,-3.60
2018-11-21T06:52:13.783Z,-3.40
2018-11-21T06:54:42.266Z,-3.40
2018-11-21T06:57:10.574Z,-3.30
2018-11-21T06:59:39.076Z,-3.20
2018-11-21T07:02:07.959Z,-3.20
2018-11-21T07:04:36.471Z,-3.10
2018-11-21T07:07:04.980Z,-2.90
2018-11-21T07:09:33.348Z,-2.80
2018-11-21T07:12:01.941Z,-2.70
2018-11-21T07:14:30.445Z,-2.70
2018-11-21T07:16:59.326Z,-2.70
2018-11-21T07:19:27.488Z,-2.50
2018-11-21T07:21:55.659Z,-2.40
2018-11-21T07:24:26.375Z,-2.30
2018-11-21T07:26:52.454Z,-2.20
2018-11-21T07:29:20.623Z,-2.10
2018-11-21T07:31:49.032Z,-2.00
2018-11-21T07:34:17.920Z,-1.90
2018-11-21T07:36:50.483Z,-2.00
2018-11-21T07:39:19.103Z,-2.00
2018-11-21T07:41:47.326Z,-1.80
2018-11-21T07:44:15.556Z,-1.70
2018-11-21T07:46:43.829Z,-1.60
2018-11-21T07:49:12.513Z,-1.50
2018-11-21T07:51:40.708Z,-1.50
2018-11-21T07:54:09.011Z,-1.40
2018-11-21T07:57:18.969Z,-1.40
2018-11-21T08:01:00.277Z,-1.30
2018-11-21T08:03:57.089Z,-1.20
2018-11-21T08:06:44.765Z,-1.20
2018-11-21T08:09:27.039Z,-1.10
2018-11-21T08:12:12.974Z,-1.10
2018-11-21T08:15:03.411Z,-1.00
2018-11-21T08:17:55.811Z,-1.00
2018-11-21T08:20:37.174Z,-1.00
2018-11-21T08:23:16.479Z,-0.90
2018-11-21T08:26:03.190Z,-0.90
2018-11-21T08:28:32.197Z,-0.90
2018-11-21T08:31:00.422Z,-0.90
2018-11-21T08:33:33.773Z,-0.90
2018-11-21T08:35:58.035Z,-0.80
2018-11-21T08:38:26.445Z,-0.80
2018-11-21T08:40:54.619Z,-0.80
2018-11-21T08:43:22.838Z,-0.80
2018-11-21T08:45:51.004Z,-0.90
2018-11-21T08:48:20.073Z,-0.90
2018-11-21T08:50:48.779Z,-0.80
2018-11-21T08:53:17.068Z,-0.80
2018-11-21T08:55:45.449Z,-0.70
2018-11-21T08:58:14.000Z,-0.70
2018-11-21T09:00:42.326Z,-0.70
2018-11-21T09:03:10.510Z,-0.80
2018-11-21T09:05:38.656Z,-0.80
2018-11-21T09:08:07.653Z,-0.80
2018-11-21T09:13:03.245Z,-0.80
2018-11-21T09:15:32.083Z,-0.70
2018-11-21T09:18:00.479Z,-0.70
2018-11-21T09:20:28.667Z,-0.70
2018-11-21T09:22:56.924Z,-0.60
2018-11-21T09:25:25.300Z,-0.60
2018-11-21T09:27:53.679Z,-0.50
2018-11-21T09:30:22.912Z,-0.50
2018-11-21T09:32:52.664Z,-0.50
2018-11-21T09:35:21.138Z,-0.50
2018-11-21T09:37:49.289Z,-0.50
2018-11-21T09:40:19.096Z,-0.50
2018-11-21T09:42:48.593Z,-0.50
2018-11-21T09:45:18.500Z,-0.50
2018-11-21T09:47:46.655Z,-0.50
2018-11-21T09:50:16.965Z,-0.50
2018-11-21T09:52:50.190Z,-0.40
2018-11-21T09:55:13.764Z,-0.40
2018-11-21T09:57:42.153Z,-0.40
2018-11-21T10:00:48.302Z,-0.50
2018-11-21T10:03:18.418Z,-0.60
2018-11-21T10:06:07.493Z,-0.60
2018-11-21T10:08:37.504Z,-0.60
2018-11-21T10:11:06.781Z,-0.50
2018-11-21T10:13:35.283Z,-0.40
2018-11-21T10:16:04.632Z,-0.30
2018-11-21T10:18:34.015Z,-0.30
2018-11-21T10:21:02.265Z,-0.30
2018-11-21T10:23:30.561Z,-0.30
2018-11-21T10:25:59.063Z,-0.30
2018-11-21T10:28:27.216Z,-0.30
2018-11-21T10:30:55.580Z,-0.30
2018-11-21T10:33:24.123Z,-0.20
2018-11-21T10:35:52.345Z,-0.10
2018-11-21T10:38:20.911Z,-0.10
2018-11-21T10:40:49.092Z,-0.10
2018-11-21T10:43:17.266Z,-0.10
2018-11-21T10:45:46.130Z,0.00
2018-11-21T10:48:14.286Z,0.00
2018-11-21T10:50:42.547Z,0.10
2018-11-21T10:53:10.824Z,0.00
2018-11-21T10:55:39.184Z,0.00
2018-11-21T10:58:07.642Z,0.00
2018-11-21T11:00:53.761Z,0.00
2018-11-21T11:03:27.027Z,0.10
2018-11-21T11:06:17.434Z,0.10
2018-11-21T11:09:05.833Z,0.10
2018-11-21T11:11:53.715Z,0.20
2018-11-21T11:14:47.916Z,0.30
2018-11-21T11:17:34.036Z,0.20
2018-11-21T11:20:33.569Z,0.20
2018-11-21T11:23:19.748Z,0.20
2018-11-21T11:26:07.181Z,0.30
2018-11-21T11:28:54.926Z,0.30
2018-11-21T11:31:45.144Z,0.30
2018-11-21T11:34:32.247Z,0.40
2018-11-21T11:37:19.904Z,0.40
2018-11-21T11:40:05.983Z,0.40
2018-11-21T11:42:59.425Z,0.50
2018-11-21T11:45:46.994Z,0.50
2018-11-21T11:48:26.782Z,0.50
2018-11-21T11:51:20.579Z,0.50
2018-11-21T11:54:06.577Z,0.50
2018-11-21T11:56:53.106Z,0.50
2018-11-21T11:59:43.269Z,0.50
2018-11-21T12:02:39.481Z,0.50
2018-11-21T12:05:33.315Z,0.60
2018-11-21T12:08:20.712Z,0.60
2018-11-21T12:11:06.834Z,0.60
2018-11-21T12:14:03.458Z,0.60
2018-11-21T12:16:53.535Z,0.60
2018-11-21T12:19:41.039Z,0.70
2018-11-21T12:22:27.217Z,0.60
2018-11-21T12:25:21.208Z,0.60
2018-11-21T12:28:07.599Z,0.60
2018-11-21T12:31:06.829Z,0.60
2018-11-21T12:33:52.816Z,0.50
2018-11-21T12:36:50.328Z,0.50
2018-11-21T12:39:37.970Z,0.50
2018-11-21T12:42:18.011Z,0.50
2018-11-21T12:45:04.219Z,0.60
2018-11-21T12:48:00.774Z,0.60
2018-11-21T12:50:46.821Z,0.50
2018-11-21T12:53:41.707Z,0.50
2018-11-21T12:56:27.574Z,0.50
2018-11-21T12:59:13.736Z,0.50
2018-11-21T13:01:53.853Z,0.50
2018-11-21T13:04:39.929Z,0.50
2018-11-21T13:07:39.722Z,0.40
2018-11-21T13:10:27.083Z,0.40
2018-11-21T13:13:26.711Z,0.30
2018-11-21T13:16:12.490Z,0.30
2018-11-21T13:18:51.601Z,0.40
2018-11-21T13:21:28.326Z,0.40
2018-11-21T13:24:12.254Z,0.50
2018-11-21T13:26:58.274Z,0.50
2018-11-21T13:29:58.408Z,0.50
2018-11-21T13:32:45.431Z,0.50
2018-11-21T13:35:32.074Z,0.50
2018-11-21T13:38:10.729Z,0.40
2018-11-21T13:40:56.881Z,0.40
2018-11-21T13:43:42.752Z,0.40
2018-11-21T13:46:32.681Z,0.30
2018-11-21T13:49:20.850Z,0.40
2018-11-21T13:52:11.325Z,0.40
2018-11-21T13:54:58.841Z,0.40
2018-11-21T13:57:27.215Z,0.40
2018-11-21T13:59:55.770Z,0.40
2018-11-21T14:02:24.357Z,0.50
2018-11-21T14:04:53.070Z,0.50
2018-11-21T14:07:21.700Z,0.50
2018-11-21T14:09:50.572Z,0.50
2018-11-21T14:12:18.877Z,0.50
2018-11-21T14:14:47.409Z,0.60
2018-11-21T14:17:15.577Z,0.60
2018-11-21T14:19:43.916Z,0.70
2018-11-21T14:22:12.086Z,0.70
2018-11-21T14:24:40.248Z,0.70
2018-11-21T14:27:08.435Z,0.80
2018-11-21T14:29:36.571Z,0.80
2018-11-21T14:32:05.412Z,0.80
2018-11-21T14:34:33.560Z,0.80
2018-11-21T14:37:02.227Z,0.80
2018-11-21T14:39:30.361Z,0.70
2018-11-21T14:41:58.681Z,0.80
2018-11-21T14:44:27.059Z,0.80
2018-11-21T14:46:56.689Z,0.70
2018-11-21T14:49:25.167Z,0.70
2018-11-21T14:51:53.415Z,0.70
2018-11-21T14:54:21.849Z,0.80
2018-11-21T14:56:49.988Z,0.80
2018-11-21T14:59:18.669Z,0.80
2018-11-21T15:01:46.953Z,0.80
2018-11-21T15:04:15.473Z,0.80
2018-11-21T15:06:44.018Z,0.90
2018-11-21T15:09:13.187Z,1.00
2018-11-21T15:11:41.971Z,1.00
2018-11-21T15:14:10.138Z,1.00
2018-11-21T15:16:38.654Z,1.10
2018-11-21T15:19:07.414Z,1.10
2018-11-21T15:21:36.316Z,1.10
2018-11-21T15:24:04.607Z,1.10
2018-11-21T15:26:33.851Z,1.10
2018-11-21T15:29:03.071Z,1.10
2018-11-21T15:31:31.397Z,1.10
2018-11-21T15:33:59.817Z,1.10
2018-11-21T15:36:28.813Z,1.00
2018-11-21T15:38:57.814Z,1.00
2018-11-21T15:41:26.046Z,1.00
2018-11-21T15:43:54.321Z,1.00
2018-11-21T15:46:22.476Z,1.00
2018-11-21T15:48:51.022Z,1.00
2018-11-21T15:51:19.228Z,0.90
2018-11-21T15:53:47.991Z,0.80
2018-11-21T15:56:17.135Z,0.80
2018-11-21T15:58:45.885Z,0.70
2018-11-21T16:01:14.214Z,0.70
2018-11-21T16:03:42.649Z,0.70
2018-11-21T16:06:11.413Z,0.70
2018-11-21T16:08:40.741Z,0.70
2018-11-21T16:11:09.025Z,0.70
2018-11-21T16:13:37.593Z,0.70
2018-11-21T16:16:05.938Z,0.70
2018-11-21T16:18:34.094Z,0.70
2018-11-21T16:21:02.806Z,0.70
2018-11-21T16:23:31.884Z,0.70
2018-11-21T16:25:59.955Z,0.70
2018-11-21T16:28:28.176Z,0.70
2018-11-21T16:30:56.352Z,0.70
2018-11-21T16:33:24.527Z,0.70
2018-11-21T16:35:53.019Z,0.70
2018-11-21T16:38:21.189Z,0.70
2018-11-21T16:40:49.704Z,0.70
2018-11-21T16:43:18.186Z,0.80
2018-11-21T16:45:49.307Z,0.80
2018-11-21T16:48:17.525Z,0.80
2018-11-21T16:50:46.021Z,0.80
2018-11-21T16:53:14.207Z,0.80
2018-11-21T16:55:43.266Z,0.90
2018-11-21T16:58:12.816Z,0.90
2018-11-21T17:00:40.970Z,0.90
2018-11-21T17:03:09.172Z,0.90
2018-11-21T17:05:37.365Z,0.90
2018-11-21T17:08:05.588Z,1.00
2018-11-21T17:10:34.432Z,1.00
2018-11-21T17:13:02.626Z,1.00
2018-11-21T17:15:32.850Z,1.00
2018-11-21T17:18:01.038Z,1.10
2018-11-21T17:20:31.071Z,1.10
2018-11-21T17:23:00.185Z,1.00
2018-11-21T17:25:33.406Z,1.00
2018-11-21T17:28:01.976Z,1.00
2018-11-21T17:30:30.288Z,1.20
2018-11-21T17:32:59.374Z,1.20
2018-11-21T17:35:27.592Z,1.20
2018-11-21T17:38:01.904Z,1.20
2018-11-21T17:40:36.733Z,1.20
2018-11-21T17:43:05.636Z,1.10
2018-11-21T17:45:34.707Z,1.10
2018-11-21T17:48:03.061Z,1.00
2018-11-21T17:50:31.248Z,1.00
2018-11-21T17:53:00.948Z,1.00
2018-11-21T17:55:30.055Z,1.10
2018-11-21T17:57:59.121Z,1.00
2018-11-21T18:00:28.975Z,1.10
2018-11-21T18:02:57.156Z,1.10
2018-11-21T18:05:27.482Z,1.10
2018-11-21T18:07:55.746Z,1.20
2018-11-21T18:10:26.120Z,1.20
2018-11-21T18:12:55.315Z,1.20
2018-11-21T18:15:23.720Z,1.30
2018-11-21T18:17:51.880Z,1.20
2018-11-21T18:20:20.895Z,1.20
2018-11-21T18:22:49.792Z,1.20
2018-11-21T18:25:20.424Z,1.10
2018-11-21T18:27:49.064Z,1.20
2018-11-21T18:30:18.875Z,1.20
2018-11-21T18:32:47.302Z,1.20
2018-11-21T18:35:17.158Z,1.20
2018-11-21T18:37:45.850Z,1.20
2018-11-21T18:40:15.815Z,1.20
2018-11-21T18:42:44.202Z,1.30
2018-11-21T18:45:15.660Z,1.30
2018-11-21T18:47:44.482Z,1.30
2018-11-21T18:50:14.166Z,1.30
2018-11-21T18:52:42.873Z,1.40
2018-11-21T18:55:13.558Z,1.40
2018-11-21T18:57:54.105Z,1.40
2018-11-21T19:00:25.259Z,1.40
2018-11-21T19:02:53.490Z,1.40
2018-11-21T19:05:21.654Z,1.40
2018-11-21T19:07:49.851Z,1.40
2018-11-21T19:10:18.012Z,1.30
2018-11-21T19:12:46.498Z,1.30
2018-11-21T19:15:15.745Z,1.30
2018-11-21T19:17:43.899Z,1.30
2018-11-21T19:20:15.226Z,1.30
2018-11-21T19:22:43.825Z,1.30
2018-11-21T19:25:12.512Z,1.30
2018-11-21T19:27:41.119Z,1.30
2018-11-21T19:30:16.857Z,1.30
2018-11-21T19:32:45.415Z,1.30
2018-11-21T19:35:13.885Z,1.30
2018-11-21T19:37:42.391Z,1.30
2018-11-21T19:40:12.290Z,1.40
2018-11-21T19:42:40.781Z,1.40
2018-11-21T19:45:11.046Z,1.40
2018-11-21T19:47:39.222Z,1.40
2018-11-21T19:50:09.975Z,1.40
2018-11-21T19:52:38.986Z,1.40
2018-11-21T19:55:09.208Z,1.40
2018-11-21T19:57:38.108Z,1.40
2018-11-21T20:00:10.269Z,1.40
2018-11-21T20:02:39.406Z,1.40
2018-11-21T20:05:08.761Z,1.40
2018-11-21T20:07:37.822Z,1.40
2018-11-21T20:10:07.092Z,1.40
2018-11-21T20:12:39.880Z,1.50
2018-11-21T20:15:03.793Z,1.50
2018-11-21T20:17:31.955Z,1.50
2018-11-21T20:20:00.110Z,1.60
2018-11-21T20:22:29.159Z,1.50
2018-11-21T20:24:58.479Z,1.50
2018-11-21T20:27:26.624Z,1.50
2018-11-21T20:29:56.417Z,1.50
2018-11-21T20:32:24.779Z,1.60
2018-11-21T20:34:52.932Z,1.50
2018-11-21T20:37:21.526Z,1.60
2018-11-21T20:39:51.128Z,1.60
2018-11-21T20:42:19.454Z,1.60
2018-11-21T20:44:48.282Z,1.60
2018-11-21T20:47:17.071Z,1.60
2018-11-21T20:49:45.783Z,1.60
2018-11-21T20:52:13.961Z,1.60
2018-11-21T20:54:42.267Z,1.60
2018-11-21T20:57:10.802Z,1.60
2018-11-21T20:59:39.377Z,1.60
2018-11-21T21:02:08.211Z,1.60
2018-11-21T21:04:36.354Z,1.60
2018-11-21T21:07:04.657Z,1.60
2018-11-21T21:09:33.895Z,1.60
2018-11-21T21:12:02.186Z,1.60
2018-11-21T21:14:30.583Z,1.60
2018-11-21T21:16:58.811Z,1.60
2018-11-21T21:19:27.212Z,1.60
2018-11-21T21:21:56.072Z,1.60
